Time;durP1;ratioP1;P1;durP2;ratioP2;P2;SDS_P1;SDS_P2;PMS_P1;PMS_P2;Temp;Humidity;BMP_temperature;BMP_pressure;BME280_temperature;BME280_humidity;BME280_pressure;Samples;Min_cycle;Max_cycle;Signal;HPM_P1;HPM_P2
2021/03/05 00:02:52;;;;;;;9.67;4.57;;;;;;;;;;10487414;28;20208;-76
2021/03/05 00:08:11;;;;;;;5.33;2.60;;;;;;;;;;10476851;28;20915;-78
2021/03/05 00:13:14;;;;;;;10.13;4.40;;;;;;;;;;10484688;28;20198;-75
2021/03/05 00:18:16;;;;;;;10.10;4.33;;;;;;;;;;10482710;28;20247;-75
2021/03/05 00:23:18;;;;;;;6.97;3.53;;;;;;;;;;10482014;28;20196;-74
2021/03/05 00:28:20;;;;;;;7.67;3.10;;;;;;;;;;10491521;28;20258;-74
2021/03/05 00:33:22;;;;;;;7.80;3.90;;;;;;;;;;10486974;28;20197;-73
2021/03/05 00:38:30;;;;;;;3.20;1.23;;;;;;;;;;10489543;28;20223;-73
2021/03/05 00:43:33;;;;;;;9.60;3.63;;;;;;;;;;10487475;28;20716;-75
2021/03/05 00:48:35;;;;;;;7.80;2.97;;;;;;;;;;10488884;28;20220;-74
2021/03/05 00:53:37;;;;;;;9.63;4.20;;;;;;;;;;10495106;28;20756;-72
2021/03/05 00:58:40;;;;;;;5.73;2.30;;;;;;;;;;10489317;28;20299;-73
2021/03/05 01:03:41;;;;;;;7.57;3.37;;;;;;;;;;10494170;28;20396;-75
2021/03/05 01:08:49;;;;;;;7.63;3.43;;;;;;;;;;10477464;28;20556;-72
2021/03/05 01:13:52;;;;;;;8.20;3.87;;;;;;;;;;10495469;28;20276;-73
2021/03/05 01:18:53;;;;;;;9.73;4.43;;;;;;;;;;10508504;28;20236;-76
2021/03/05 01:23:55;;;;;;;8.07;3.73;;;;;;;;;;10506955;28;20349;-76
2021/03/05 01:28:57;;;;;;;8.60;4.33;;;;;;;;;;10497576;28;20208;-75
2021/03/05 01:33:59;;;;;;;8.70;4.27;;;;;;;;;;10491640;28;20268;-77
2021/03/05 01:39:09;;;;;;;8.13;4.00;;;;;;;;;;10482163;28;20338;-75
2021/03/05 01:44:12;;;;;;;9.37;5.17;;;;;;;;;;10512628;28;20483;-77
2021/03/05 01:49:14;;;;;;;10.10;4.63;;;;;;;;;;10499355;28;20243;-73
2021/03/05 01:54:16;;;;;;;9.37;5.00;;;;;;;;;;10492971;28;20553;-74
2021/03/05 01:59:21;;;;;;;12.90;4.83;;;;;;;;;;10478527;28;20327;-74
2021/03/05 02:04:22;;;;;;;9.63;5.13;;;;;;;;;;10488460;28;20208;-73
2021/03/05 02:09:35;;;;;;;9.40;4.80;;;;;;;;;;10486129;28;20227;-75
2021/03/05 02:14:38;;;;;;;3.53;1.33;;;;;;;;;;10497518;28;20232;-75
2021/03/05 02:19:49;;;;;;;8.57;4.20;;;;;;;;;;10491152;28;20281;-73
2021/03/05 02:25:13;;;;;;;9.17;4.50;;;;;;;;;;10485326;28;20576;-75
2021/03/05 02:30:31;;;;;;;10.50;4.70;;;;;;;;;;10496288;28;20262;-74
2021/03/05 02:35:34;;;;;;;9.60;4.90;;;;;;;;;;10487461;28;20241;-76
2021/03/05 02:40:39;;;;;;;9.57;5.17;;;;;;;;;;10484518;28;20242;-75
2021/03/05 02:45:41;;;;;;;9.97;5.50;;;;;;;;;;10480230;28;20318;-76
2021/03/05 02:50:46;;;;;;;8.47;4.40;;;;;;;;;;10487264;28;20246;-76
2021/03/05 02:55:49;;;;;;;11.67;5.53;;;;;;;;;;10484578;28;20234;-78
2021/03/05 03:00:52;;;;;;;9.23;4.33;;;;;;;;;;10495922;28;20212;-78
2021/03/05 03:05:55;;;;;;;8.57;4.30;;;;;;;;;;10487179;28;20265;-77
2021/03/05 03:10:57;;;;;;;10.20;4.63;;;;;;;;;;10480518;28;20337;-75
2021/03/05 03:15:59;;;;;;;6.53;3.70;;;;;;;;;;10481792;28;20648;-73
2021/03/05 03:21:03;;;;;;;11.43;5.47;;;;;;;;;;10487800;28;20667;-75
2021/03/05 03:26:05;;;;;;;11.07;5.07;;;;;;;;;;10472253;28;20208;-75
2021/03/05 03:31:07;;;;;;;8.67;3.73;;;;;;;;;;10482218;28;20307;-72
2021/03/05 03:36:10;;;;;;;6.77;3.90;;;;;;;;;;10474802;28;20315;-73
2021/03/05 03:41:12;;;;;;;11.07;4.80;;;;;;;;;;10516154;28;20343;-74
2021/03/05 03:46:15;;;;;;;9.53;4.30;;;;;;;;;;10484577;28;20291;-73
2021/03/05 03:51:20;;;;;;;10.67;4.37;;;;;;;;;;10484397;28;20224;-72
2021/03/05 03:56:22;;;;;;;8.00;3.93;;;;;;;;;;10485397;28;20251;-75
2021/03/05 04:01:26;;;;;;;10.10;4.77;;;;;;;;;;10492232;28;20208;-74
2021/03/05 04:06:30;;;;;;;10.00;4.90;;;;;;;;;;10496274;28;20240;-73
2021/03/05 04:11:32;;;;;;;8.37;3.37;;;;;;;;;;10488515;28;20220;-74
2021/03/05 04:16:33;;;;;;;9.73;4.73;;;;;;;;;;10500206;28;20251;-75
2021/03/05 04:21:37;;;;;;;6.50;3.57;;;;;;;;;;10487799;28;20265;-76
2021/03/05 04:26:38;;;;;;;10.57;4.60;;;;;;;;;;10498630;28;20240;-75
2021/03/05 04:31:40;;;;;;;10.33;4.40;;;;;;;;;;10497761;28;20216;-74
2021/03/05 04:36:42;;;;;;;8.50;3.57;;;;;;;;;;10482744;28;20635;-77
2021/03/05 04:41:44;;;;;;;9.00;4.60;;;;;;;;;;10490570;28;20342;-73
2021/03/05 04:46:45;;;;;;;9.83;4.97;;;;;;;;;;10493463;28;20212;-74
2021/03/05 04:51:48;;;;;;;10.10;4.63;;;;;;;;;;10491124;28;20247;-77
2021/03/05 04:56:50;;;;;;;7.03;2.97;;;;;;;;;;10495249;28;20191;-76
2021/03/05 05:01:51;;;;;;;8.57;4.27;;;;;;;;;;10482792;28;20216;-72
2021/03/05 05:06:55;;;;;;;9.73;5.17;;;;;;;;;;10496155;28;20692;-74
2021/03/05 05:11:57;;;;;;;11.63;6.07;;;;;;;;;;10533094;28;20565;-72
2021/03/05 05:16:58;;;;;;;13.27;6.90;;;;;;;;;;10545850;28;20242;-74
2021/03/05 05:22:03;;;;;;;11.77;6.87;;;;;;;;;;10514326;28;20211;-75
2021/03/05 05:27:05;;;;;;;15.37;8.60;;;;;;;;;;10541233;28;20215;-74
2021/03/05 05:32:07;;;;;;;15.70;8.47;;;;;;;;;;10541934;28;20279;-75
2021/03/05 05:37:10;;;;;;;15.40;8.90;;;;;;;;;;10528112;28;20222;-74
2021/03/05 05:42:15;;;;;;;17.20;9.60;;;;;;;;;;10539523;28;20280;-73
2021/03/05 05:47:17;;;;;;;16.07;8.87;;;;;;;;;;10537224;28;20224;-77
2021/03/05 05:52:21;;;;;;;17.63;8.93;;;;;;;;;;10541592;28;20434;-74
2021/03/05 05:57:23;;;;;;;14.57;8.07;;;;;;;;;;10530829;28;20235;-74
2021/03/05 06:02:26;;;;;;;14.90;8.27;;;;;;;;;;10540833;28;20274;-74
2021/03/05 06:07:31;;;;;;;13.60;6.90;;;;;;;;;;10534656;28;20252;-74
2021/03/05 06:12:40;;;;;;;13.63;6.27;;;;;;;;;;10530503;28;20265;-73
2021/03/05 06:17:42;;;;;;;12.17;6.60;;;;;;;;;;10534568;28;20564;-74
2021/03/05 06:22:46;;;;;;;11.97;6.10;;;;;;;;;;10514665;28;20267;-74
2021/03/05 06:27:48;;;;;;;12.43;6.53;;;;;;;;;;10541214;28;20297;-78
2021/03/05 06:32:50;;;;;;;12.40;6.60;;;;;;;;;;10531123;28;20230;-74
2021/03/05 06:37:52;;;;;;;11.83;6.60;;;;;;;;;;10544550;28;20211;-75
2021/03/05 06:42:58;;;;;;;10.63;6.00;;;;;;;;;;10534371;28;20652;-74
2021/03/05 06:48:03;;;;;;;11.07;5.93;;;;;;;;;;10534389;28;20251;-74
2021/03/05 06:53:20;;;;;;;10.50;6.20;;;;;;;;;;10538175;28;20233;-75
2021/03/05 06:58:21;;;;;;;12.83;6.33;;;;;;;;;;10553797;28;20211;-75
2021/03/05 07:03:23;;;;;;;10.87;6.33;;;;;;;;;;10525646;28;20745;-73
2021/03/05 07:08:40;;;;;;;10.93;6.40;;;;;;;;;;10534216;28;20281;-75
2021/03/05 07:13:48;;;;;;;11.00;6.10;;;;;;;;;;10542800;28;20199;-77
2021/03/05 07:18:50;;;;;;;11.33;6.57;;;;;;;;;;10512653;28;20219;-75
2021/03/05 07:23:53;;;;;;;10.77;6.37;;;;;;;;;;10533377;28;20200;-74
2021/03/05 07:28:54;;;;;;;10.90;6.30;;;;;;;;;;10531419;28;20645;-75
2021/03/05 07:33:59;;;;;;;10.33;5.00;;;;;;;;;;10525622;28;20683;-73
2021/03/05 07:39:05;;;;;;;8.93;5.10;;;;;;;;;;10534137;28;20220;-74
2021/03/05 07:44:06;;;;;;;8.17;4.73;;;;;;;;;;10523345;28;20282;-74
2021/03/05 07:49:09;;;;;;;7.77;4.40;;;;;;;;;;10500922;28;20216;-75
2021/03/05 07:54:12;;;;;;;8.40;4.17;;;;;;;;;;10519636;28;20192;-78
2021/03/05 07:59:44;;;;;;;8.70;4.23;;;;;;;;;;10531443;28;20219;-76
2021/03/05 08:04:56;;;;;;;7.20;4.10;;;;;;;;;;10539120;28;20211;-76
2021/03/05 08:09:58;;;;;;;6.57;3.60;;;;;;;;;;10517272;28;20222;-77
2021/03/05 08:15:18;;;;;;;6.67;3.50;;;;;;;;;;10529954;28;20362;-74
2021/03/05 08:20:39;;;;;;;8.73;4.60;;;;;;;;;;10506236;28;20227;-72
2021/03/05 08:25:48;;;;;;;8.03;3.83;;;;;;;;;;10530262;28;20239;-75
2021/03/05 08:30:50;;;;;;;7.87;4.13;;;;;;;;;;10538442;28;20318;-73
2021/03/05 08:35:52;;;;;;;8.70;4.67;;;;;;;;;;10544722;28;20188;-75
2021/03/05 08:41:03;;;;;;;8.80;4.90;;;;;;;;;;10533820;28;20256;-76
2021/03/05 08:46:05;;;;;;;7.50;4.20;;;;;;;;;;10536364;28;20211;-76
2021/03/05 08:51:13;;;;;;;8.90;4.60;;;;;;;;;;10522632;28;20216;-76
2021/03/05 08:56:19;;;;;;;8.60;4.80;;;;;;;;;;10514090;28;20195;-78
2021/03/05 09:01:28;;;;;;;9.07;5.07;;;;;;;;;;10541390;28;20683;-75
2021/03/05 09:06:30;;;;;;;10.67;5.67;;;;;;;;;;10548242;28;20571;-75
2021/03/05 09:11:36;;;;;;;9.40;5.33;;;;;;;;;;10548378;28;20218;-76
2021/03/05 09:16:52;;;;;;;9.10;5.30;;;;;;;;;;10545247;28;20548;-76
2021/03/05 09:22:03;;;;;;;11.43;6.00;;;;;;;;;;10557487;28;20226;-79
2021/03/05 09:27:20;;;;;;;11.30;6.13;;;;;;;;;;10525162;28;20204;-77
2021/03/05 09:32:22;;;;;;;11.17;6.63;;;;;;;;;;10541656;28;20237;-75
2021/03/05 09:37:26;;;;;;;13.07;7.93;;;;;;;;;;10544571;28;20254;-76
2021/03/05 09:42:45;;;;;;;11.87;6.80;;;;;;;;;;10543357;28;20273;-75
2021/03/05 09:47:47;;;;;;;10.60;6.20;;;;;;;;;;10546204;28;20231;-74
2021/03/05 09:52:49;;;;;;;11.37;5.83;;;;;;;;;;10544997;28;20200;-75
2021/03/05 09:57:52;;;;;;;11.33;6.03;;;;;;;;;;10515981;28;20219;-75
2021/03/05 10:03:03;;;;;;;9.50;5.10;;;;;;;;;;10562371;28;20194;-75
2021/03/05 10:08:16;;;;;;;11.20;5.50;;;;;;;;;;10522359;28;20305;-74
2021/03/05 10:13:18;;;;;;;12.83;6.43;;;;;;;;;;10536691;28;20278;-74
2021/03/05 10:18:20;;;;;;;12.10;6.43;;;;;;;;;;10516544;28;20246;-77
2021/03/05 10:23:23;;;;;;;14.00;7.37;;;;;;;;;;10529121;28;20195;-74
2021/03/05 10:28:26;;;;;;;12.43;7.00;;;;;;;;;;10536824;28;20290;-75
2021/03/05 10:33:35;;;;;;;13.43;7.07;;;;;;;;;;10528250;28;20225;-74
2021/03/05 10:38:37;;;;;;;13.30;7.13;;;;;;;;;;10534947;28;20306;-71
2021/03/05 10:43:40;;;;;;;15.77;7.57;;;;;;;;;;10516461;28;20680;-74
2021/03/05 10:48:41;;;;;;;14.47;7.40;;;;;;;;;;10542944;28;20293;-74
2021/03/05 10:53:43;;;;;;;15.53;8.17;;;;;;;;;;10517022;28;20201;-74
2021/03/05 10:58:46;;;;;;;13.30;6.93;;;;;;;;;;10530524;28;20289;-75
2021/03/05 11:03:47;;;;;;;13.70;7.33;;;;;;;;;;10513829;28;20199;-77
2021/03/05 11:08:49;;;;;;;14.70;7.57;;;;;;;;;;10515979;28;20711;-73
2021/03/05 11:13:51;;;;;;;14.30;7.17;;;;;;;;;;10537098;28;20302;-75
2021/03/05 11:18:53;;;;;;;14.30;7.50;;;;;;;;;;10530068;28;20284;-75
2021/03/05 11:23:55;;;;;;;12.97;7.23;;;;;;;;;;10529781;28;20278;-74
2021/03/05 11:28:57;;;;;;;12.80;6.87;;;;;;;;;;10504686;28;20291;-77
2021/03/05 11:33:59;;;;;;;13.80;7.07;;;;;;;;;;10555607;28;20691;-73
2021/03/05 11:39:05;;;;;;;12.10;6.60;;;;;;;;;;10532843;28;20315;-74
2021/03/05 11:44:07;;;;;;;11.23;6.10;;;;;;;;;;10544003;28;20223;-75
2021/03/05 11:49:09;;;;;;;13.27;6.67;;;;;;;;;;10529208;28;20398;-74
2021/03/05 11:54:11;;;;;;;10.90;5.53;;;;;;;;;;10534642;28;20192;-74
2021/03/05 11:59:14;;;;;;;11.33;5.80;;;;;;;;;;10541117;28;20219;-75
2021/03/05 12:04:16;;;;;;;9.03;4.63;;;;;;;;;;10531801;28;20267;-75
2021/03/05 12:09:17;;;;;;;10.40;4.70;;;;;;;;;;10579830;28;20610;-77
2021/03/05 12:14:20;;;;;;;11.43;5.70;;;;;;;;;;10514375;28;20576;-76
2021/03/05 12:19:22;;;;;;;10.47;4.97;;;;;;;;;;10537592;28;20279;-74
2021/03/05 12:24:24;;;;;;;9.47;5.13;;;;;;;;;;10540918;28;20254;-74
2021/03/05 12:29:26;;;;;;;10.07;4.83;;;;;;;;;;10538534;28;20219;-75
2021/03/05 12:34:28;;;;;;;8.57;4.10;;;;;;;;;;10532718;28;20265;-75
2021/03/05 12:39:30;;;;;;;8.60;4.07;;;;;;;;;;10515689;28;20674;-75
2021/03/05 12:44:32;;;;;;;8.70;4.40;;;;;;;;;;10544529;28;20203;-74
2021/03/05 12:49:34;;;;;;;8.97;4.30;;;;;;;;;;10501163;28;20262;-74
2021/03/05 12:54:36;;;;;;;9.83;4.83;;;;;;;;;;10541043;28;20632;-75
2021/03/05 12:59:38;;;;;;;9.23;3.57;;;;;;;;;;10546083;28;20671;-74
2021/03/05 13:04:40;;;;;;;8.27;4.00;;;;;;;;;;10547402;28;20626;-74
2021/03/05 13:09:41;;;;;;;7.47;3.30;;;;;;;;;;10517883;28;20498;-74
2021/03/05 13:14:44;;;;;;;7.77;3.80;;;;;;;;;;10543907;28;20218;-73
2021/03/05 13:19:45;;;;;;;9.30;3.80;;;;;;;;;;10527346;28;20271;-75
2021/03/05 13:24:48;;;;;;;8.43;3.80;;;;;;;;;;10544942;28;20286;-75
2021/03/05 13:29:50;;;;;;;7.60;3.60;;;;;;;;;;10537531;28;20229;-75
2021/03/05 13:34:52;;;;;;;8.47;3.53;;;;;;;;;;10547530;28;20196;-74
2021/03/05 13:39:53;;;;;;;9.93;4.23;;;;;;;;;;10517536;28;20580;-74
2021/03/05 13:44:56;;;;;;;8.43;3.90;;;;;;;;;;10522752;28;20210;-75
2021/03/05 13:49:58;;;;;;;10.23;4.67;;;;;;;;;;10512528;28;20769;-74
2021/03/05 13:55:00;;;;;;;8.77;4.60;;;;;;;;;;10512580;28;20204;-74
2021/03/05 14:00:06;;;;;;;8.37;3.90;;;;;;;;;;10540517;28;20298;-75
2021/03/05 14:05:08;;;;;;;8.80;4.10;;;;;;;;;;10529600;28;20243;-74
2021/03/05 14:10:10;;;;;;;7.50;3.50;;;;;;;;;;10532651;28;20331;-77
2021/03/05 14:15:13;;;;;;;8.60;3.93;;;;;;;;;;10549408;28;20573;-77
2021/03/05 14:20:15;;;;;;;10.20;4.67;;;;;;;;;;10531733;28;20263;-75
2021/03/05 14:25:17;;;;;;;11.00;5.13;;;;;;;;;;10519601;28;20726;-75
2021/03/05 14:30:20;;;;;;;10.07;5.10;;;;;;;;;;10528887;28;20277;-76
2021/03/05 14:35:21;;;;;;;9.10;4.53;;;;;;;;;;10531867;28;20175;-74
2021/03/05 14:40:23;;;;;;;10.17;4.90;;;;;;;;;;10523824;28;20203;-73
2021/03/05 14:45:26;;;;;;;9.43;5.13;;;;;;;;;;10496617;28;20216;-73
2021/03/05 14:50:27;;;;;;;11.63;5.50;;;;;;;;;;10547344;28;20293;-74
2021/03/05 14:55:29;;;;;;;10.10;5.53;;;;;;;;;;10515091;28;20627;-79
2021/03/05 15:00:32;;;;;;;10.93;6.03;;;;;;;;;;10536205;28;20226;-76
2021/03/05 15:05:37;;;;;;;14.17;7.37;;;;;;;;;;10554668;27;20294;-76
2021/03/05 15:10:39;;;;;;;9.40;4.67;;;;;;;;;;10543588;28;20670;-75
2021/03/05 15:15:41;;;;;;;10.70;4.80;;;;;;;;;;10516788;28;20223;-75
2021/03/05 15:20:43;;;;;;;10.07;4.83;;;;;;;;;;10540270;28;20577;-75
2021/03/05 15:25:45;;;;;;;10.27;4.50;;;;;;;;;;10538581;28;20235;-74
2021/03/05 15:30:48;;;;;;;9.93;5.00;;;;;;;;;;10525251;28;20314;-75
2021/03/05 15:35:49;;;;;;;8.93;4.60;;;;;;;;;;10522846;28;20294;-76
2021/03/05 15:40:52;;;;;;;10.93;5.10;;;;;;;;;;10532282;28;20222;-74
2021/03/05 15:45:54;;;;;;;12.27;5.70;;;;;;;;;;10509610;28;20241;-75
2021/03/05 15:50:56;;;;;;;11.50;5.17;;;;;;;;;;10516137;28;20219;-74
2021/03/05 15:55:58;;;;;;;12.07;5.87;;;;;;;;;;10509474;28;20251;-73
2021/03/05 16:01:03;;;;;;;8.60;4.43;;;;;;;;;;10539564;28;20219;-76
2021/03/05 16:06:06;;;;;;;8.23;4.00;;;;;;;;;;10506161;28;20704;-76
2021/03/05 16:11:08;;;;;;;9.80;3.97;;;;;;;;;;10501428;28;20246;-74
2021/03/05 16:16:11;;;;;;;7.93;3.93;;;;;;;;;;10514484;28;20216;-77
2021/03/05 16:21:13;;;;;;;8.47;4.40;;;;;;;;;;10511783;28;20631;-75
2021/03/05 16:26:14;;;;;;;8.83;4.80;;;;;;;;;;10538486;28;20203;-74
2021/03/05 16:31:17;;;;;;;8.77;4.23;;;;;;;;;;10514802;28;20305;-74
2021/03/05 16:36:23;;;;;;;8.83;4.80;;;;;;;;;;10524921;28;20213;-76
2021/03/05 16:41:26;;;;;;;7.87;3.97;;;;;;;;;;10510399;28;20216;-75
2021/03/05 16:46:31;;;;;;;8.90;4.60;;;;;;;;;;10502912;28;20298;-76
2021/03/05 16:51:33;;;;;;;9.37;4.50;;;;;;;;;;10506103;28;20678;-76
2021/03/05 16:56:36;;;;;;;10.27;4.83;;;;;;;;;;10501112;28;20219;-77
2021/03/05 17:01:39;;;;;;;8.30;4.30;;;;;;;;;;10524668;28;20436;-75
2021/03/05 17:06:41;;;;;;;9.50;4.80;;;;;;;;;;10515392;28;20204;-75
2021/03/05 17:11:42;;;;;;;9.03;4.77;;;;;;;;;;10531584;28;20290;-78
2021/03/05 17:16:48;;;;;;;9.63;4.83;;;;;;;;;;10540711;28;20638;-75
2021/03/05 17:21:50;;;;;;;9.10;4.70;;;;;;;;;;10528159;28;20220;-74
2021/03/05 17:26:52;;;;;;;8.97;4.60;;;;;;;;;;10523076;28;20200;-75
2021/03/05 17:31:54;;;;;;;10.13;6.40;;;;;;;;;;10497609;28;20224;-76
2021/03/05 17:36:59;;;;;;;9.70;5.07;;;;;;;;;;10530719;28;20183;-75
2021/03/05 17:42:03;;;;;;;10.40;5.10;;;;;;;;;;10527679;28;20924;-79
2021/03/05 17:47:06;;;;;;;9.93;5.00;;;;;;;;;;10515853;28;20311;-75
2021/03/05 17:52:08;;;;;;;10.53;5.40;;;;;;;;;;10526707;28;20195;-76
2021/03/05 17:57:10;;;;;;;10.50;5.90;;;;;;;;;;10528843;28;20223;-79
2021/03/05 18:02:13;;;;;;;10.23;5.50;;;;;;;;;;10532941;28;20195;-75
2021/03/05 18:07:15;;;;;;;9.80;5.40;;;;;;;;;;10504833;28;20199;-75
2021/03/05 18:12:16;;;;;;;10.50;5.20;;;;;;;;;;10485472;28;22238;-78
2021/03/05 18:17:19;;;;;;;10.13;5.17;;;;;;;;;;10497816;28;20354;-73
2021/03/05 18:22:21;;;;;;;10.97;5.67;;;;;;;;;;10493079;28;20726;-74
2021/03/05 18:27:22;;;;;;;10.43;5.93;;;;;;;;;;10508853;28;20243;-74
2021/03/05 18:32:25;;;;;;;9.87;5.37;;;;;;;;;;10535613;28;20244;-76
2021/03/05 18:37:27;;;;;;;9.80;5.17;;;;;;;;;;10495422;28;20454;-75
2021/03/05 18:42:28;;;;;;;15.73;8.87;;;;;;;;;;10488869;28;20516;-74
2021/03/05 18:47:31;;;;;;;11.80;6.47;;;;;;;;;;10508715;28;20287;-75
2021/03/05 18:52:32;;;;;;;12.53;5.67;;;;;;;;;;10539341;28;20211;-74
2021/03/05 18:57:34;;;;;;;10.47;5.83;;;;;;;;;;10535557;28;20224;-73
2021/03/05 19:02:37;;;;;;;11.83;6.23;;;;;;;;;;10532254;28;20198;-77
2021/03/05 19:07:39;;;;;;;14.27;6.53;;;;;;;;;;10530937;28;20240;-75
2021/03/05 19:12:41;;;;;;;12.27;6.40;;;;;;;;;;10538468;28;20191;-76
2021/03/05 19:17:44;;;;;;;10.77;5.97;;;;;;;;;;10510502;28;20218;-74
2021/03/05 19:22:46;;;;;;;12.50;7.20;;;;;;;;;;10530754;28;20207;-76
2021/03/05 19:27:48;;;;;;;11.83;5.83;;;;;;;;;;10473651;28;20305;-73
2021/03/05 19:32:50;;;;;;;12.87;6.30;;;;;;;;;;10464188;28;20200;-76
2021/03/05 19:37:52;;;;;;;12.93;6.40;;;;;;;;;;10483207;28;20290;-75
2021/03/05 19:42:54;;;;;;;11.77;6.43;;;;;;;;;;10492655;28;20575;-76
2021/03/05 19:47:57;;;;;;;11.67;6.30;;;;;;;;;;10506612;28;20286;-76
2021/03/05 19:53:03;;;;;;;11.97;6.97;;;;;;;;;;10496917;28;20735;-75
2021/03/05 19:58:05;;;;;;;11.83;6.10;;;;;;;;;;10504513;28;20227;-75
2021/03/05 20:03:08;;;;;;;11.67;6.37;;;;;;;;;;10524806;28;20199;-75
2021/03/05 20:08:10;;;;;;;11.77;6.03;;;;;;;;;;10531503;28;20219;-75
2021/03/05 20:13:15;;;;;;;10.43;5.40;;;;;;;;;;10524492;28;20220;-78
2021/03/05 20:18:17;;;;;;;12.03;5.50;;;;;;;;;;10527240;28;20294;-75
2021/03/05 20:23:41;;;;;;;8.83;4.70;;;;;;;;;;10503604;28;20762;-77
2021/03/05 20:28:43;;;;;;;9.67;5.30;;;;;;;;;;10511419;28;20277;-76
2021/03/05 20:33:45;;;;;;;9.03;4.90;;;;;;;;;;10525608;28;20200;-77
2021/03/05 20:38:47;;;;;;;10.23;5.50;;;;;;;;;;10527716;28;20219;-76
2021/03/05 20:43:48;;;;;;;9.93;5.17;;;;;;;;;;10548925;28;20640;-77
2021/03/05 20:48:51;;;;;;;8.97;4.77;;;;;;;;;;10521448;28;20259;-77
2021/03/05 20:53:53;;;;;;;10.07;4.83;;;;;;;;;;10547754;28;20200;-73
2021/03/05 20:58:55;;;;;;;9.73;5.17;;;;;;;;;;10530796;28;20216;-74
2021/03/05 21:03:58;;;;;;;8.53;4.60;;;;;;;;;;10550073;28;20306;-76
2021/03/05 21:08:59;;;;;;;8.93;5.07;;;;;;;;;;10547916;28;20220;-75
2021/03/05 21:14:04;;;;;;;9.23;4.87;;;;;;;;;;10558672;28;20257;-76
2021/03/05 21:19:06;;;;;;;9.53;4.60;;;;;;;;;;10547430;28;20796;-73
2021/03/05 21:24:08;;;;;;;9.00;5.30;;;;;;;;;;10531256;28;20302;-77
2021/03/05 21:29:10;;;;;;;9.63;5.30;;;;;;;;;;10544533;28;20254;-76
2021/03/05 21:34:13;;;;;;;9.37;4.87;;;;;;;;;;10531439;28;20213;-75
2021/03/05 21:39:14;;;;;;;9.43;5.10;;;;;;;;;;10536527;28;20207;-73
2021/03/05 21:44:16;;;;;;;10.60;5.60;;;;;;;;;;10528689;28;20204;-74
2021/03/05 21:49:18;;;;;;;9.57;5.80;;;;;;;;;;10543356;28;20274;-75
2021/03/05 21:54:29;;;;;;;10.07;5.43;;;;;;;;;;10564506;28;20210;-79
2021/03/05 21:59:31;;;;;;;11.67;6.30;;;;;;;;;;10582676;27;20253;-76
2021/03/05 22:04:33;;;;;;;10.97;5.27;;;;;;;;;;10559171;28;20210;-75
2021/03/05 22:09:49;;;;;;;9.93;5.50;;;;;;;;;;10548092;28;20222;-79
2021/03/05 22:14:50;;;;;;;9.37;5.90;;;;;;;;;;10535280;28;20651;-76
2021/03/05 22:19:53;;;;;;;11.23;6.23;;;;;;;;;;10543452;28;20703;-75
2021/03/05 22:24:54;;;;;;;10.37;5.70;;;;;;;;;;10538097;28;20643;-75
2021/03/05 22:29:56;;;;;;;9.53;5.20;;;;;;;;;;10514878;28;20627;-74
2021/03/05 22:34:59;;;;;;;9.70;5.83;;;;;;;;;;10536093;28;20194;-75
2021/03/05 22:40:00;;;;;;;10.33;5.83;;;;;;;;;;10527524;28;20565;-75
2021/03/05 22:45:06;;;;;;;11.07;5.53;;;;;;;;;;10523019;28;20199;-74
2021/03/05 22:50:09;;;;;;;11.10;6.07;;;;;;;;;;10522256;28;20273;-75
2021/03/05 22:55:14;;;;;;;11.93;6.37;;;;;;;;;;10516106;28;20203;-75
2021/03/05 23:00:17;;;;;;;11.20;6.43;;;;;;;;;;10541895;28;20215;-74
2021/03/05 23:05:20;;;;;;;11.83;6.03;;;;;;;;;;10518210;28;20234;-76
2021/03/05 23:10:22;;;;;;;12.23;6.80;;;;;;;;;;10534266;28;20208;-76
2021/03/05 23:15:24;;;;;;;11.20;5.97;;;;;;;;;;10529201;28;20216;-76
2021/03/05 23:20:29;;;;;;;10.27;5.80;;;;;;;;;;10531911;28;20551;-75
2021/03/05 23:25:35;;;;;;;11.33;6.17;;;;;;;;;;10537828;28;20205;-74
2021/03/05 23:30:38;;;;;;;10.77;6.23;;;;;;;;;;10535950;28;20250;-74
2021/03/05 23:35:41;;;;;;;13.03;6.77;;;;;;;;;;10523306;28;20245;-75
2021/03/05 23:40:43;;;;;;;11.27;6.53;;;;;;;;;;10510926;28;20635;-75
2021/03/05 23:45:45;;;;;;;12.17;6.43;;;;;;;;;;10512577;28;20233;-73
2021/03/05 23:50:48;;;;;;;13.57;6.57;;;;;;;;;;10532336;28;20730;-74
2021/03/05 23:56:00;;;;;;;11.20;6.23;;;;;;;;;;10525192;28;20223;-74
